Portada
METAR-TAF:

METAR-TAF

Aeropuertos :

Nueva Orleans, Luisiana, Estados Unidos

latitud: 30-02-58N, longitud: 090-01-44W, altitud: 2 m

Observación

El informe se hizo hace 55 minutos, a las 21:53 UTC
Viento 11 kt del oeste
Temperatura 16°C
Humedad 55%
Presión 1018 hPa
Visibilidad: 16.1 km
Cielo despejado

METAR: KNEW 242153Z 28011KT 10SM CLR 16/07 A3005 RMK AO2 SLP169 T01610067

Hora: 16:48 (22:48 UTC)

Pronóstico

El informe se hizo hace 5 horas y 11 minutos, a las 17:37 UTC
Pronóstico válido del 24 a las 18 UTC al 25 a las 18 UTC
Viento 10 kt del oeste-noroeste
Visibilidad: 10 km
Cielo despejado
A partir de las 25 a las 0300 UTC
Viento 10 kt del noroeste
Visibilidad: 10 km
Cielo despejado
A partir de las 25 a las 1200 UTC
Viento 8 kt del norte
Visibilidad: 10 km
Cielo despejado

TAF: KNEW 241737Z 2418/2518 29010KT P6SM SKC FM250300 32010KT P6SM SKC FM251200 36008KT P6SM SKC

Observaciones y pronósticos meteorológicos de más de 4000 aeropuertos (mensajes METAR y TAF).

Los puntos amarillos y rojos representan las estaciones disponibles.

Ponga el ratón en el punto deseado para ver el nombre de la estación.

Haga clic para ver las observaciones y los pronósticos meteorológicos.

Para cambiar el mapa : haga clic en los botones verdes con una cruz de color negro para hacer un zoom, en el botón verde con un guión para alejar o en las flechas verdes para mapas adyacentes.


METAR-TAF: